Time;durP1;ratioP1;P1;durP2;ratioP2;P2;SDS_P1;SDS_P2;PMS_P1;PMS_P2;Temp;Humidity;BMP_temperature;BMP_pressure;BME280_temperature;BME280_humidity;BME280_pressure;Samples;Min_cycle;Max_cycle;Signal;HPM_P1;HPM_P2
2023/10/06 00:01:21;;;;;;;3.60;1.25;;;20.30;75.40;;;;;;6279033;22;20015;-69
2023/10/06 00:03:57;;;;;;;5.30;1.10;;;20.30;75.40;;;;;;6280640;22;20114;-69
2023/10/06 00:06:23;;;;;;;4.25;1.80;;;20.30;75.40;;;;;;6306310;22;20019;-69
2023/10/06 00:08:54;;;;;;;2.65;0.90;;;20.30;75.40;;;;;;6280815;22;20073;-70
2023/10/06 00:11:29;;;;;;;3.67;1.02;;;20.30;75.30;;;;;;6280276;22;20046;-69
2023/10/06 00:14:01;;;;;;;2.67;1.10;;;20.30;75.30;;;;;;6279551;22;20016;-70
2023/10/06 00:16:33;;;;;;;4.32;1.45;;;20.30;75.30;;;;;;6280278;22;20023;-69
2023/10/06 00:19:11;;;;;;;3.00;1.38;;;20.30;75.30;;;;;;6280728;22;20023;-69
2023/10/06 00:21:43;;;;;;;4.45;1.27;;;20.30;75.30;;;;;;6279687;22;20443;-69
2023/10/06 00:24:10;;;;;;;2.30;1.00;;;20.30;75.90;;;;;;6280048;22;20016;-70
2023/10/06 00:26:37;;;;;;;3.07;1.10;;;20.30;75.30;;;;;;6280405;22;20015;-69
2023/10/06 00:29:04;;;;;;;3.53;1.20;;;20.30;75.30;;;;;;6306913;22;20019;-69
2023/10/06 00:31:31;;;;;;;4.07;1.55;;;20.20;75.20;;;;;;6280188;22;20434;-69
2023/10/06 00:34:00;;;;;;;3.92;1.40;;;20.20;75.80;;;;;;6280570;22;20029;-69
2023/10/06 00:36:29;;;;;;;2.25;1.00;;;20.20;75.20;;;;;;6279204;22;20046;-70
2023/10/06 00:38:55;;;;;;;3.80;1.23;;;20.20;75.10;;;;;;6280053;22;20019;-70
2023/10/06 00:41:21;;;;;;;3.17;1.10;;;20.20;75.10;;;;;;6278895;22;20042;-70
2023/10/06 00:43:47;;;;;;;2.78;1.20;;;20.20;75.10;;;;;;6307855;22;20069;-71
2023/10/06 00:46:14;;;;;;;4.45;1.40;;;20.20;75.10;;;;;;6280006;22;20007;-70
2023/10/06 00:48:44;;;;;;;2.58;1.20;;;20.20;75.70;;;;;;6279507;22;20018;-69
2023/10/06 00:51:22;;;;;;;3.85;1.55;;;20.20;75.00;;;;;;6279688;22;20026;-70
2023/10/06 00:53:48;;;;;;;3.00;1.17;;;20.20;75.10;;;;;;6308128;22;20030;-70
2023/10/06 00:56:16;;;;;;;2.58;1.13;;;20.20;75.00;;;;;;6278910;22;20414;-70
2023/10/06 00:58:42;;;;;;;3.00;1.30;;;20.20;75.00;;;;;;6255194;22;20019;-70
2023/10/06 01:01:12;;;;;;;4.18;1.33;;;20.20;75.00;;;;;;6279479;22;20029;-70
2023/10/06 01:03:38;;;;;;;3.47;1.27;;;20.20;75.00;;;;;;6278560;22;20390;-70
2023/10/06 01:06:10;;;;;;;3.58;1.27;;;20.20;75.00;;;;;;6280176;22;20021;-70
2023/10/06 01:08:37;;;;;;;3.63;1.40;;;20.20;75.00;;;;;;6256041;22;20041;-70
2023/10/06 01:11:11;;;;;;;4.15;1.10;;;20.20;75.00;;;;;;6279089;22;20447;-69
2023/10/06 01:13:51;;;;;;;3.05;1.30;;;20.20;74.90;;;;;;6279621;22;20492;-68
2023/10/06 01:16:17;;;;;;;2.50;1.15;;;20.20;74.90;;;;;;6307376;22;20009;-70
2023/10/06 01:18:43;;;;;;;2.83;1.33;;;20.20;74.90;;;;;;6279085;22;20435;-70
2023/10/06 01:21:17;;;;;;;4.13;1.20;;;20.10;74.90;;;;;;6307323;22;20022;-70
2023/10/06 01:23:46;;;;;;;4.05;1.73;;;20.20;74.90;;;;;;6279116;22;20042;-69
2023/10/06 01:26:13;;;;;;;4.13;1.40;;;20.20;74.90;;;;;;6307038;22;20042;-69
2023/10/06 01:28:45;;;;;;;2.40;1.02;;;20.20;74.90;;;;;;6279665;22;20435;-70
2023/10/06 01:31:12;;;;;;;3.72;1.40;;;20.20;74.90;;;;;;6278450;22;20011;-69
2023/10/06 01:33:38;;;;;;;2.40;1.30;;;20.20;74.80;;;;;;6279939;22;20027;-69
2023/10/06 01:36:13;;;;;;;4.13;1.30;;;20.20;74.80;;;;;;6277933;22;20011;-70
2023/10/06 01:38:43;;;;;;;2.83;1.50;;;20.10;74.80;;;;;;6305970;22;20015;-69
2023/10/06 01:41:10;;;;;;;4.25;1.25;;;20.10;74.80;;;;;;6279382;22;20019;-70
2023/10/06 01:43:38;;;;;;;3.28;1.20;;;20.10;74.80;;;;;;6279580;22;20102;-69
2023/10/06 01:46:06;;;;;;;4.60;1.10;;;20.10;74.80;;;;;;6278713;22;20015;-69
2023/10/06 01:48:33;;;;;;;4.25;1.00;;;20.10;74.80;;;;;;6279197;22;20065;-70
2023/10/06 01:50:59;;;;;;;3.03;1.30;;;20.10;74.70;;;;;;6279004;22;20342;-69
2023/10/06 01:53:31;;;;;;;4.80;1.40;;;20.10;74.70;;;;;;6278228;22;20041;-69
2023/10/06 01:56:01;;;;;;;1.83;1.13;;;20.10;74.70;;;;;;6279722;22;20012;-69
2023/10/06 01:58:27;;;;;;;4.93;1.35;;;20.10;74.70;;;;;;6306344;22;20319;-69
2023/10/06 02:00:52;;;;;;;3.67;1.15;;;20.10;74.70;;;;;;6278171;22;20469;-70
2023/10/06 02:03:20;;;;;;;3.58;1.48;;;20.10;74.70;;;;;;6279460;22;20022;-70
2023/10/06 02:05:46;;;;;;;;;;;20.10;74.70;;;;;;6306417;22;20026;-70
2023/10/06 02:08:21;;;;;;;3.15;1.17;;;20.10;74.60;;;;;;6306970;22;19919;-70
2023/10/06 02:10:47;;;;;;;3.95;1.35;;;20.00;74.70;;;;;;6279157;22;20016;-69
2023/10/06 02:13:19;;;;;;;3.15;1.40;;;20.10;74.70;;;;;;6278393;22;20022;-70
2023/10/06 02:15:45;;;;;;;3.42;1.20;;;20.10;74.60;;;;;;6306702;22;20046;-69
2023/10/06 02:18:12;;;;;;;3.33;1.20;;;20.10;74.70;;;;;;6279066;22;20022;-70
2023/10/06 02:20:41;;;;;;;4.03;1.45;;;20.10;74.60;;;;;;6278628;22;20029;-70
2023/10/06 02:23:07;;;;;;;4.45;1.27;;;20.10;74.60;;;;;;6279073;22;20015;-70
2023/10/06 02:25:32;;;;;;;4.00;1.35;;;20.10;74.60;;;;;;6279322;22;20038;-69
2023/10/06 02:28:04;;;;;;;3.17;1.20;;;20.00;74.50;;;;;;6306023;22;20440;-69
2023/10/06 02:30:40;;;;;;;2.20;1.20;;;20.00;74.50;;;;;;6278932;22;20454;-70
2023/10/06 02:33:06;;;;;;;3.92;1.33;;;20.00;74.50;;;;;;6279321;22;20455;-69
2023/10/06 02:35:35;;;;;;;3.00;1.27;;;20.00;74.50;;;;;;6278248;22;20432;-69
2023/10/06 02:38:05;;;;;;;2.97;1.10;;;20.00;74.40;;;;;;6279314;22;20026;-69
2023/10/06 02:40:43;;;;;;;3.45;1.20;;;20.00;74.40;;;;;;6279084;22;20378;-68
2023/10/06 02:43:10;;;;;;;;;;;20.00;74.50;;;;;;6279255;22;20026;-69
2023/10/06 02:45:40;;;;;;;3.22;1.20;;;20.00;74.40;;;;;;6306800;22;19969;-70
2023/10/06 02:48:22;;;;;;;3.90;1.35;;;20.00;74.40;;;;;;6278790;22;20073;-69
2023/10/06 02:50:50;;;;;;;3.17;1.30;;;20.00;74.40;;;;;;6307164;22;20090;-69
2023/10/06 02:53:20;;;;;;;2.75;1.45;;;20.00;74.40;;;;;;6306411;22;20500;-70
2023/10/06 02:55:49;;;;;;;4.25;1.27;;;20.00;74.30;;;;;;6278455;22;20436;-69
2023/10/06 02:58:26;;;;;;;;;;;20.00;74.90;;;;;;6279446;22;20019;-70
2023/10/06 03:00:51;;;;;;;3.85;1.20;;;20.00;74.30;;;;;;6278946;22;19914;-70
2023/10/06 03:03:21;;;;;;;3.80;1.27;;;20.00;74.40;;;;;;6278045;22;20018;-69
2023/10/06 03:05:51;;;;;;;2.72;1.00;;;20.00;74.40;;;;;;6279463;22;20011;-70
2023/10/06 03:08:20;;;;;;;4.25;1.42;;;20.00;74.40;;;;;;6278712;22;20094;-70
2023/10/06 03:10:48;;;;;;;3.25;1.50;;;20.00;74.40;;;;;;6278592;22;20029;-69
2023/10/06 03:13:29;;;;;;;2.57;1.10;;;20.00;74.30;;;;;;6306558;22;20060;-70
2023/10/06 03:15:55;;;;;;;3.47;1.20;;;20.00;74.30;;;;;;6278939;22;20019;-70
2023/10/06 03:18:20;;;;;;;3.20;1.20;;;20.00;74.30;;;;;;6278236;22;20048;-70
2023/10/06 03:20:47;;;;;;;4.35;1.35;;;19.90;74.30;;;;;;6278981;22;20011;-70
2023/10/06 03:23:38;;;;;;;2.70;1.02;;;20.00;74.30;;;;;;6305406;22;20474;-70
2023/10/06 03:26:09;;;;;;;2.72;1.20;;;20.00;74.30;;;;;;6279080;22;20469;-70
2023/10/06 03:28:42;;;;;;;3.03;1.48;;;19.90;74.20;;;;;;6278776;22;20023;-70
2023/10/06 03:33:49;;;;;;;6.05;1.13;;;19.90;74.20;;;;;;6278754;22;20023;-71
2023/10/06 03:36:16;;;;;;;2.83;1.25;;;19.90;74.20;;;;;;6306964;22;20076;-71
2023/10/06 03:38:55;;;;;;;3.03;1.67;;;19.90;74.20;;;;;;6279702;22;20016;-70
2023/10/06 03:41:25;;;;;;;3.22;1.00;;;19.90;74.20;;;;;;6280527;22;20019;-70
2023/10/06 03:43:51;;;;;;;3.13;1.23;;;19.90;74.20;;;;;;6280450;22;20016;-70
2023/10/06 03:46:20;;;;;;;3.30;1.30;;;19.90;74.10;;;;;;6279051;22;20019;-70
2023/10/06 03:48:48;;;;;;;2.75;1.38;;;19.90;74.10;;;;;;6280838;22;20091;-70
2023/10/06 03:51:18;;;;;;;4.05;1.42;;;19.90;74.10;;;;;;6279849;22;20043;-71
2023/10/06 03:53:48;;;;;;;3.65;1.40;;;19.90;74.10;;;;;;6280112;22;20026;-70
2023/10/06 03:56:16;;;;;;;2.03;1.30;;;19.90;74.10;;;;;;6280480;22;20087;-70
2023/10/06 03:58:43;;;;;;;3.28;1.33;;;19.90;74.10;;;;;;6279722;22;20098;-70
2023/10/06 04:01:11;;;;;;;2.75;1.35;;;19.90;74.10;;;;;;6279975;22;20049;-71
2023/10/06 04:03:38;;;;;;;5.10;1.20;;;20.00;74.20;;;;;;6255280;22;20101;-70
2023/10/06 04:06:04;;;;;;;4.00;1.48;;;19.90;74.10;;;;;;6279324;22;20118;-70
2023/10/06 04:08:29;;;;;;;2.90;1.48;;;19.90;74.10;;;;;;6279930;22;20351;-69
2023/10/06 04:10:58;;;;;;;3.30;1.25;;;20.00;74.20;;;;;;6280652;22;20011;-69
2023/10/06 04:13:24;;;;;;;;;;;20.00;74.10;;;;;;6279122;22;20062;-69
2023/10/06 04:15:49;;;;;;;2.83;1.20;;;19.90;74.00;;;;;;6306530;22;19915;-70
2023/10/06 04:18:18;;;;;;;3.35;1.35;;;20.00;74.10;;;;;;6280288;22;20076;-70
2023/10/06 04:20:44;;;;;;;3.10;1.27;;;20.00;74.00;;;;;;6279596;22;20094;-70
2023/10/06 04:23:12;;;;;;;3.65;1.42;;;20.00;74.00;;;;;;6307668;22;20439;-70
2023/10/06 04:25:38;;;;;;;4.03;1.70;;;20.00;73.90;;;;;;6280500;22;20015;-69
2023/10/06 04:28:08;;;;;;;2.60;1.40;;;20.00;73.90;;;;;;6279576;22;20034;-70
2023/10/06 04:30:37;;;;;;;4.80;1.63;;;20.00;73.90;;;;;;6280306;22;20093;-70
2023/10/06 04:33:06;;;;;;;3.95;1.85;;;20.00;73.80;;;;;;6280361;22;20436;-70
2023/10/06 04:35:34;;;;;;;2.83;1.15;;;20.10;73.80;;;;;;6278590;22;20011;-70
2023/10/06 04:38:01;;;;;;;2.80;1.27;;;20.10;73.80;;;;;;6280150;22;20329;-70
2023/10/06 04:40:29;;;;;;;3.25;1.40;;;20.00;73.70;;;;;;6279204;22;20462;-70
2023/10/06 04:42:56;;;;;;;4.85;1.38;;;20.10;73.70;;;;;;6279907;22;20098;-69
2023/10/06 04:45:23;;;;;;;3.25;1.40;;;20.10;73.70;;;;;;6279756;22;20054;-70
2023/10/06 04:47:49;;;;;;;2.95;1.50;;;20.10;73.70;;;;;;6279318;22;20023;-69
2023/10/06 04:50:16;;;;;;;3.72;1.55;;;20.10;73.60;;;;;;6280001;22;20023;-69
2023/10/06 04:52:46;;;;;;;3.78;1.60;;;20.10;73.60;;;;;;6280343;22;20019;-70
2023/10/06 04:55:13;;;;;;;2.88;1.30;;;20.10;73.60;;;;;;6278124;22;20432;-70
2023/10/06 04:57:41;;;;;;;4.40;1.58;;;20.10;73.60;;;;;;6280262;22;20015;-69
2023/10/06 05:00:13;;;;;;;2.83;1.23;;;20.10;73.60;;;;;;6279432;22;20030;-69
2023/10/06 05:02:44;;;;;;;2.65;1.27;;;20.10;73.60;;;;;;6279318;22;20019;-70
2023/10/06 05:05:19;;;;;;;3.80;1.40;;;20.10;73.60;;;;;;6279759;22;20019;-70
2023/10/06 05:07:46;;;;;;;3.45;1.30;;;20.10;73.60;;;;;;6279899;22;20015;-69
2023/10/06 05:10:12;;;;;;;2.88;1.23;;;20.10;73.60;;;;;;6306212;22;20011;-69
2023/10/06 05:12:38;;;;;;;3.88;1.23;;;20.10;73.60;;;;;;6307591;22;20015;-69
2023/10/06 05:15:17;;;;;;;3.47;1.50;;;20.10;73.50;;;;;;6279834;22;20392;-69
2023/10/06 05:17:43;;;;;;;4.55;1.50;;;20.10;73.50;;;;;;6279144;22;20022;-69
2023/10/06 05:20:19;;;;;;;3.83;1.67;;;20.10;73.50;;;;;;6279462;22;20023;-70
2023/10/06 05:22:47;;;;;;;3.75;1.52;;;20.10;73.60;;;;;;6306485;22;20084;-69
2023/10/06 05:25:13;;;;;;;;;;;20.10;73.50;;;;;;6279629;22;20019;-69
2023/10/06 05:27:39;;;;;;;3.90;1.40;;;20.10;73.60;;;;;;6279851;22;19946;-70
2023/10/06 05:30:06;;;;;;;4.05;1.58;;;20.10;73.60;;;;;;6278665;22;20355;-70
2023/10/06 05:32:32;;;;;;;3.42;1.40;;;20.10;73.60;;;;;;6253799;22;20053;-69
2023/10/06 05:34:58;;;;;;;3.63;1.35;;;20.10;73.60;;;;;;6278622;22;20019;-70
2023/10/06 05:37:23;;;;;;;2.95;1.17;;;20.10;73.60;;;;;;6276331;22;20011;-70
2023/10/06 05:39:49;;;;;;;3.80;1.40;;;20.10;73.60;;;;;;6305133;22;20027;-70
2023/10/06 05:42:15;;;;;;;3.20;1.20;;;20.10;73.60;;;;;;6278161;22;20043;-70
2023/10/06 05:44:41;;;;;;;3.28;1.27;;;20.10;73.60;;;;;;6278224;22;20023;-70
2023/10/06 05:47:09;;;;;;;3.03;1.20;;;20.10;73.60;;;;;;6278741;22;20018;-70
2023/10/06 05:49:38;;;;;;;;;;;20.10;73.60;;;;;;6279289;22;20022;-70
2023/10/06 05:52:04;;;;;;;3.00;1.52;;;20.10;73.60;;;;;;6278580;22;19922;-70
2023/10/06 05:54:30;;;;;;;3.42;1.38;;;20.10;73.60;;;;;;6278604;22;20076;-69
2023/10/06 05:56:56;;;;;;;4.40;2.00;;;20.10;73.60;;;;;;6279577;22;20043;-69
2023/10/06 05:59:22;;;;;;;2.95;1.35;;;20.10;73.50;;;;;;6278091;22;20026;-70
2023/10/06 06:01:56;;;;;;;4.03;1.67;;;20.10;73.60;;;;;;6279443;22;20012;-65
2023/10/06 06:04:27;;;;;;;4.15;1.30;;;20.10;73.50;;;;;;6279356;22;20012;-63
2023/10/06 06:06:56;;;;;;;4.50;1.30;;;20.10;73.50;;;;;;6279274;22;20011;-64
2023/10/06 06:09:25;;;;;;;3.72;1.65;;;20.10;73.50;;;;;;6277925;22;20433;-71
2023/10/06 06:11:51;;;;;;;6.47;1.58;;;20.10;73.50;;;;;;6278581;22;20049;-66
2023/10/06 06:14:20;;;;;;;6.22;1.75;;;20.10;73.60;;;;;;6279210;22;20026;-66
2023/10/06 06:16:46;;;;;;;4.40;1.42;;;20.10;73.70;;;;;;6279586;22;20023;-66
2023/10/06 06:19:12;;;;;;;7.00;1.40;;;20.10;73.80;;;;;;6305484;22;20023;-66
2023/10/06 06:21:38;;;;;;;4.25;1.50;;;20.10;73.90;;;;;;6279267;22;20103;-67
2023/10/06 06:24:06;;;;;;;3.13;1.70;;;20.10;73.90;;;;;;6279432;22;20015;-67
2023/10/06 06:26:32;;;;;;;4.50;1.58;;;20.10;73.90;;;;;;6278163;22;20370;-67
2023/10/06 06:29:02;;;;;;;5.35;1.67;;;20.10;73.90;;;;;;6279070;22;20446;-67
2023/10/06 06:31:32;;;;;;;4.07;1.60;;;20.10;73.90;;;;;;6279199;22;20022;-67
2023/10/06 06:33:59;;;;;;;4.63;1.55;;;20.10;73.90;;;;;;6278679;22;20064;-65
2023/10/06 06:36:31;;;;;;;4.35;1.70;;;20.20;73.90;;;;;;6279050;22;20008;-67
2023/10/06 06:38:58;;;;;;;4.28;1.60;;;20.20;73.90;;;;;;6279502;22;20022;-67
2023/10/06 06:41:24;;;;;;;5.28;1.70;;;20.20;73.90;;;;;;6305489;22;20011;-66
2023/10/06 06:43:54;;;;;;;6.05;1.80;;;20.20;74.00;;;;;;6278965;22;20023;-66
2023/10/06 06:46:20;;;;;;;5.40;1.70;;;20.20;74.00;;;;;;6279133;22;20439;-66
2023/10/06 06:48:46;;;;;;;5.03;1.52;;;20.20;73.90;;;;;;6278198;22;20043;-66
2023/10/06 06:51:12;;;;;;;4.13;1.35;;;20.20;74.00;;;;;;6278628;22;20022;-67
2023/10/06 06:53:39;;;;;;;4.75;1.83;;;20.20;73.90;;;;;;6306946;22;20049;-68
2023/10/06 06:56:05;;;;;;;6.63;1.80;;;20.20;73.80;;;;;;6305048;22;20019;-68
2023/10/06 06:58:32;;;;;;;4.53;1.60;;;20.20;73.80;;;;;;6305742;22;20015;-67
2023/10/06 07:00:58;;;;;;;6.68;1.77;;;20.20;73.80;;;;;;6278915;22;20015;-68
2023/10/06 07:03:24;;;;;;;5.15;1.40;;;20.20;73.80;;;;;;6274605;22;20038;-65
2023/10/06 07:05:50;;;;;;;4.38;1.50;;;20.20;73.80;;;;;;6279056;22;20027;-65
2023/10/06 07:08:16;;;;;;;4.78;1.65;;;20.20;73.80;;;;;;6277972;22;20019;-66
2023/10/06 07:10:52;;;;;;;4.60;1.50;;;20.20;73.80;;;;;;6280123;22;20019;-67
2023/10/06 07:13:17;;;;;;;5.43;2.00;;;20.20;73.80;;;;;;6280386;22;20019;-65
2023/10/06 07:15:43;;;;;;;4.00;1.65;;;20.20;73.80;;;;;;6280211;22;20019;-65
2023/10/06 07:18:11;;;;;;;3.80;1.80;;;20.20;73.70;;;;;;6280275;22;20041;-64
2023/10/06 07:20:37;;;;;;;;;;;20.20;73.70;;;;;;6308873;22;20015;-66
2023/10/06 07:23:04;;;;;;;6.22;1.50;;;20.20;73.60;;;;;;6306867;22;19915;-66
2023/10/06 07:25:31;;;;;;;6.75;1.42;;;20.20;73.60;;;;;;6279964;22;20435;-66
2023/10/06 07:27:58;;;;;;;6.30;1.90;;;20.20;73.50;;;;;;6280781;22;20443;-66
2023/10/06 07:30:26;;;;;;;4.00;2.10;;;20.20;73.50;;;;;;6278997;22;20106;-67
2023/10/06 07:32:54;;;;;;;5.32;1.63;;;20.30;73.70;;;;;;6307669;22;20377;-66
2023/10/06 07:35:25;;;;;;;4.40;1.52;;;20.20;73.60;;;;;;6280532;22;20054;-66
2023/10/06 07:37:52;;;;;;;3.80;1.38;;;20.30;73.60;;;;;;6279853;22;20030;-66
2023/10/06 07:40:21;;;;;;;6.88;2.03;;;20.30;73.70;;;;;;6280474;22;20057;-66
2023/10/06 07:42:48;;;;;;;6.65;1.88;;;20.30;73.70;;;;;;6280581;22;20068;-66
2023/10/06 07:45:15;;;;;;;4.57;1.55;;;20.30;73.80;;;;;;6278989;22;20491;-67
2023/10/06 07:47:42;;;;;;;5.93;1.80;;;20.30;73.70;;;;;;6280728;22;20492;-66
2023/10/06 07:50:09;;;;;;;4.18;1.73;;;20.30;73.70;;;;;;6280446;22;20069;-67
2023/10/06 07:52:37;;;;;;;5.35;1.67;;;20.30;73.70;;;;;;6254450;22;20431;-66
2023/10/06 07:55:09;;;;;;;6.10;1.70;;;20.30;73.70;;;;;;6279903;22;20022;-66
2023/10/06 07:57:36;;;;;;;4.88;1.67;;;20.30;73.70;;;;;;6278867;22;20761;-66
2023/10/06 08:00:06;;;;;;;3.78;1.40;;;20.30;73.70;;;;;;6279414;22;20470;-65
2023/10/06 08:02:39;;;;;;;4.38;1.67;;;20.30;73.70;;;;;;6279800;22;20039;-66
2023/10/06 08:05:11;;;;;;;5.00;1.90;;;20.30;73.70;;;;;;6278404;22;20034;-66
2023/10/06 08:07:40;;;;;;;5.30;1.70;;;20.30;73.70;;;;;;6280130;22;20026;-65
2023/10/06 08:10:07;;;;;;;6.05;1.50;;;20.30;73.70;;;;;;6279930;22;20014;-65
2023/10/06 08:12:33;;;;;;;7.15;1.65;;;20.30;73.60;;;;;;6278937;22;20047;-66
2023/10/06 08:15:06;;;;;;;2.83;1.42;;;20.30;73.60;;;;;;6278773;22;20016;-65
2023/10/06 08:17:32;;;;;;;4.65;1.83;;;20.30;73.60;;;;;;6279726;22;20439;-66
2023/10/06 08:19:57;;;;;;;5.35;1.60;;;20.30;73.60;;;;;;6277268;22;20020;-65
2023/10/06 08:22:25;;;;;;;3.75;1.55;;;20.30;73.60;;;;;;6278566;22;20347;-65
2023/10/06 08:24:53;;;;;;;3.50;1.58;;;20.30;73.60;;;;;;6279692;22;20027;-65
2023/10/06 08:27:21;;;;;;;4.75;1.73;;;20.40;73.70;;;;;;6306264;22;20023;-66
2023/10/06 08:29:47;;;;;;;6.38;1.75;;;20.30;74.20;;;;;;6279920;22;20100;-66
2023/10/06 08:32:13;;;;;;;3.83;1.60;;;20.30;74.20;;;;;;6307141;22;20019;-66
2023/10/06 08:34:39;;;;;;;4.50;1.70;;;20.30;73.60;;;;;;6278961;22;20029;-67
2023/10/06 08:37:11;;;;;;;4.32;1.85;;;20.30;73.60;;;;;;6280286;22;20064;-66
2023/10/06 08:39:40;;;;;;;4.97;1.70;;;20.30;73.60;;;;;;6279355;22;20019;-66
2023/10/06 08:42:12;;;;;;;4.88;1.77;;;20.30;73.60;;;;;;6280251;22;20094;-65
2023/10/06 08:44:40;;;;;;;6.80;1.90;;;20.40;73.70;;;;;;6307171;22;20007;-66
2023/10/06 08:47:09;;;;;;;4.10;1.60;;;20.30;73.60;;;;;;6279367;22;20020;-66
2023/10/06 08:49:35;;;;;;;5.32;1.58;;;20.40;73.70;;;;;;6279731;22;20019;-67
2023/10/06 08:52:01;;;;;;;2.88;1.42;;;20.40;73.60;;;;;;6227867;22;20011;-67
2023/10/06 08:54:27;;;;;;;4.55;1.80;;;20.40;73.60;;;;;;6251425;22;20025;-66
2023/10/06 08:56:53;;;;;;;5.03;1.52;;;20.30;73.50;;;;;;6228949;22;20011;-69
2023/10/06 08:59:20;;;;;;;5.97;1.70;;;20.40;73.60;;;;;;6305177;22;20091;-66
2023/10/06 09:01:45;;;;;;;5.05;1.83;;;20.40;73.60;;;;;;6253377;22;20026;-68
2023/10/06 09:04:11;;;;;;;5.28;2.10;;;20.40;73.60;;;;;;6279065;22;20015;-67
2023/10/06 09:06:42;;;;;;;6.07;1.77;;;20.40;73.60;;;;;;6229161;22;20033;-66
2023/10/06 09:09:12;;;;;;;6.72;2.15;;;20.40;73.70;;;;;;6253462;22;20410;-66
2023/10/06 09:11:38;;;;;;;5.53;1.80;;;20.40;73.80;;;;;;6230937;22;20013;-66
2023/10/06 09:14:07;;;;;;;4.72;1.90;;;20.40;73.70;;;;;;6279896;22;20026;-66
2023/10/06 09:16:51;;;;;;;7.00;1.73;;;20.40;73.70;;;;;;6278796;22;20019;-66
2023/10/06 09:19:18;;;;;;;8.93;2.08;;;20.40;73.70;;;;;;6278752;22;20118;-65
2023/10/06 09:22:04;;;;;;;10.82;2.50;;;20.40;73.90;;;;;;6278846;22;20012;-67
2023/10/06 09:24:30;;;;;;;9.25;2.50;;;20.40;73.90;;;;;;6306669;22;20477;-66
2023/10/06 09:26:56;;;;;;;10.80;2.67;;;20.40;73.90;;;;;;6278510;22;20049;-66
2023/10/06 09:29:32;;;;;;;13.30;2.58;;;20.40;74.00;;;;;;6276569;22;20053;-68
2023/10/06 09:31:58;;;;;;;10.98;2.25;;;20.50;74.10;;;;;;6279302;22;20020;-67
2023/10/06 09:34:24;;;;;;;8.45;2.30;;;20.50;74.10;;;;;;6279208;22;20019;-67
2023/10/06 09:36:50;;;;;;;8.50;2.30;;;20.50;74.00;;;;;;6278941;22;20049;-67
2023/10/06 09:39:32;;;;;;;13.00;2.88;;;20.50;74.00;;;;;;6253010;22;20023;-67
2023/10/06 09:42:01;;;;;;;6.55;2.10;;;20.50;74.00;;;;;;6279720;22;20060;-64
2023/10/06 09:44:27;;;;;;;11.32;2.33;;;20.50;74.00;;;;;;6253446;22;20019;-67
2023/10/06 09:46:53;;;;;;;12.65;2.83;;;20.50;74.00;;;;;;6279848;22;20011;-67
2023/10/06 09:49:18;;;;;;;8.77;2.55;;;20.60;74.20;;;;;;6279063;22;20079;-66
2023/10/06 09:51:45;;;;;;;10.07;2.22;;;20.50;74.20;;;;;;6278872;22;20019;-67
2023/10/06 09:54:11;;;;;;;10.70;2.42;;;20.60;74.30;;;;;;6279512;22;20438;-66
2023/10/06 09:56:42;;;;;;;11.52;2.80;;;20.60;74.30;;;;;;6279730;22;20042;-67
2023/10/06 09:59:12;;;;;;;11.38;2.90;;;20.60;74.30;;;;;;6253396;22;20023;-69
2023/10/06 10:01:39;;;;;;;8.70;2.55;;;20.60;74.30;;;;;;6274056;22;20011;-67
2023/10/06 10:04:05;;;;;;;10.73;2.25;;;20.60;74.40;;;;;;6247382;22;20091;-67
2023/10/06 10:06:30;;;;;;;9.23;2.30;;;20.70;74.40;;;;;;6222622;22;20058;-66
2023/10/06 10:08:56;;;;;;;9.35;2.08;;;20.70;74.40;;;;;;6248917;22;20015;-67
2023/10/06 10:11:30;;;;;;;11.45;2.22;;;20.70;74.40;;;;;;6273130;22;20019;-68
2023/10/06 10:14:18;;;;;;;7.55;2.40;;;20.70;74.50;;;;;;6224612;22;20068;-67
2023/10/06 10:17:03;;;;;;;8.60;2.20;;;20.70;74.50;;;;;;6214851;22;20022;-67
2023/10/06 10:19:28;;;;;;;8.18;2.65;;;20.70;74.50;;;;;;6223649;22;20020;-66
2023/10/06 10:21:55;;;;;;;10.07;2.58;;;20.70;74.40;;;;;;6248195;22;20388;-67
2023/10/06 10:24:21;;;;;;;7.82;2.10;;;20.70;74.40;;;;;;6248687;22;20094;-67
2023/10/06 10:26:47;;;;;;;9.32;2.22;;;20.70;74.40;;;;;;6273618;22;20070;-67
2023/10/06 10:29:13;;;;;;;9.80;2.40;;;20.80;74.50;;;;;;6273978;22;20031;-67
2023/10/06 10:31:52;;;;;;;7.97;2.60;;;20.80;74.50;;;;;;6274123;22;20024;-67
2023/10/06 10:34:21;;;;;;;11.13;3.20;;;20.80;74.50;;;;;;6272905;22;20078;-67
2023/10/06 10:37:05;;;;;;;11.90;2.72;;;20.80;74.60;;;;;;6274300;22;20016;-67
2023/10/06 10:39:41;;;;;;;9.55;2.45;;;20.80;74.60;;;;;;6272926;22;20444;-68
2023/10/06 10:42:07;;;;;;;8.88;2.22;;;20.80;74.40;;;;;;6248701;22;20020;-67
2023/10/06 10:44:35;;;;;;;11.75;2.47;;;20.80;74.40;;;;;;6224835;22;20023;-66
2023/10/06 10:47:02;;;;;;;12.18;2.90;;;20.80;74.30;;;;;;6275494;22;20027;-64
2023/10/06 10:49:32;;;;;;;7.78;2.50;;;20.80;74.30;;;;;;6275767;22;20447;-66
2023/10/06 10:52:08;;;;;;;12.70;2.88;;;20.80;74.30;;;;;;6277855;22;20336;-65
2023/10/06 10:54:33;;;;;;;14.88;2.55;;;20.90;74.30;;;;;;6275102;22;20015;-65
2023/10/06 10:57:18;;;;;;;7.43;2.47;;;20.90;74.20;;;;;;6277843;22;20112;-64
2023/10/06 11:02:48;;;;;;;12.90;3.47;;;20.90;74.10;;;;;;6308124;22;20331;-63
2023/10/06 11:05:16;;;;;;;9.35;2.45;;;20.90;74.10;;;;;;6308650;22;20030;-65
2023/10/06 11:07:56;;;;;;;12.43;2.83;;;20.90;74.00;;;;;;6254974;22;20011;-64
2023/10/06 11:10:26;;;;;;;11.77;2.63;;;20.90;73.80;;;;;;6256617;22;20086;-64
2023/10/06 11:13:12;;;;;;;9.38;2.40;;;20.90;73.80;;;;;;6256524;22;20343;-65
2023/10/06 11:15:38;;;;;;;9.68;2.85;;;20.90;73.70;;;;;;6285507;22;20023;-64
2023/10/06 11:18:06;;;;;;;9.32;2.58;;;20.90;73.60;;;;;;6255495;22;20444;-65
2023/10/06 11:20:35;;;;;;;8.93;1.87;;;20.90;73.60;;;;;;6255972;22;20030;-65
2023/10/06 11:23:01;;;;;;;6.80;2.60;;;20.90;73.50;;;;;;6307689;22;20015;-65
2023/10/06 11:25:32;;;;;;;10.05;2.70;;;20.90;73.40;;;;;;6279611;22;20575;-65
2023/10/06 11:28:06;;;;;;;8.48;2.00;;;20.90;73.40;;;;;;6280711;22;20023;-63
2023/10/06 11:30:33;;;;;;;9.75;2.30;;;20.90;73.30;;;;;;6279297;22;20451;-67
2023/10/06 11:33:03;;;;;;;10.38;2.92;;;20.90;73.30;;;;;;6308223;22;20096;-64
2023/10/06 11:35:30;;;;;;;11.23;2.60;;;20.90;73.00;;;;;;6278666;22;20038;-64
2023/10/06 11:37:56;;;;;;;10.40;2.20;;;21.00;72.90;;;;;;6308638;22;20068;-65
2023/10/06 11:40:24;;;;;;;8.50;1.88;;;21.10;72.90;;;;;;6306437;22;20019;-64
2023/10/06 11:42:50;;;;;;;10.43;2.50;;;21.10;72.80;;;;;;6280097;22;20023;-64
2023/10/06 11:45:30;;;;;;;17.20;2.85;;;21.10;73.30;;;;;;6279844;22;20350;-62
2023/10/06 11:47:56;;;;;;;8.80;2.45;;;21.10;72.50;;;;;;6308586;22;20011;-64
2023/10/06 11:50:25;;;;;;;15.73;2.45;;;21.10;72.40;;;;;;6306850;22;20018;-64
2023/10/06 11:52:51;;;;;;;6.60;2.25;;;21.20;72.50;;;;;;6280817;22;20015;-64
2023/10/06 11:55:24;;;;;;;9.57;2.15;;;21.10;72.50;;;;;;6279943;22;20043;-64
2023/10/06 11:57:51;;;;;;;8.75;2.60;;;21.10;72.50;;;;;;6279772;22;20027;-64
2023/10/06 12:00:17;;;;;;;8.85;2.10;;;21.00;72.50;;;;;;6274744;22;20020;-65
2023/10/06 12:02:47;;;;;;;7.97;2.03;;;21.00;72.60;;;;;;6275563;22;20024;-65
2023/10/06 12:05:13;;;;;;;8.80;2.35;;;21.00;72.60;;;;;;6275639;22;20432;-64
2023/10/06 12:07:39;;;;;;;8.55;2.35;;;21.00;72.60;;;;;;6275415;22;20066;-65
2023/10/06 12:10:06;;;;;;;7.00;2.30;;;21.00;72.60;;;;;;6276434;22;20023;-65
2023/10/06 12:12:32;;;;;;;6.25;2.30;;;21.00;72.40;;;;;;6275882;22;20046;-65
2023/10/06 12:14:57;;;;;;;7.82;2.40;;;21.00;72.00;;;;;;6274963;22;20429;-65
2023/10/06 12:17:26;;;;;;;8.38;2.20;;;21.00;72.00;;;;;;6274813;22;20026;-65
2023/10/06 12:19:52;;;;;;;5.47;2.10;;;21.00;72.00;;;;;;6274137;22;20039;-66
2023/10/06 12:22:18;;;;;;;7.75;2.13;;;21.00;71.90;;;;;;6274530;22;20016;-64
2023/10/06 12:24:45;;;;;;;8.05;2.30;;;21.00;71.90;;;;;;6273693;22;20070;-65
2023/10/06 12:27:11;;;;;;;7.22;2.72;;;21.00;71.90;;;;;;6276670;22;20007;-64
2023/10/06 12:29:37;;;;;;;5.65;2.25;;;21.00;72.00;;;;;;6277050;22;20329;-64
2023/10/06 12:32:02;;;;;;;6.38;2.50;;;21.00;72.00;;;;;;6274349;22;20027;-64
2023/10/06 12:34:28;;;;;;;6.43;2.10;;;20.90;71.90;;;;;;6276555;22;20019;-65
2023/10/06 12:37:01;;;;;;;8.77;2.42;;;20.90;72.00;;;;;;6277017;22;20082;-64
2023/10/06 12:39:36;;;;;;;6.50;2.28;;;21.00;72.00;;;;;;6275768;22;20020;-64
2023/10/06 12:42:03;;;;;;;7.63;2.65;;;21.00;72.00;;;;;;6275174;22;20015;-64
2023/10/06 12:44:29;;;;;;;7.00;2.50;;;21.00;71.90;;;;;;6274642;22;20011;-64
2023/10/06 12:46:55;;;;;;;7.32;2.70;;;21.00;71.90;;;;;;6274573;22;20395;-65
2023/10/06 12:49:24;;;;;;;8.63;2.25;;;21.00;71.90;;;;;;6274251;22;20020;-64
2023/10/06 12:51:49;;;;;;;7.30;2.40;;;21.00;71.80;;;;;;6274686;22;20126;-64
2023/10/06 12:54:15;;;;;;;7.32;2.60;;;21.00;71.80;;;;;;6274939;22;20074;-64
2023/10/06 12:56:44;;;;;;;6.13;2.17;;;21.00;71.80;;;;;;6274426;22;20022;-63
2023/10/06 12:59:13;;;;;;;5.63;2.03;;;21.00;71.80;;;;;;6274042;22;20081;-63
2023/10/06 13:01:39;;;;;;;7.65;2.50;;;21.00;71.80;;;;;;6273915;22;20455;-64